Airport details for: LOWK (Austria)

Metar

LOWK 280620Z VRB02KT 9999 FEW055 17/10 Q1024 NOSIG

General details

ICAO: LOWK
IATA: KLU
Name (city): Klagenfurt
Major:
Country: Austria
vACC: vACC Austria
Description:

http://www.vacc-austria.org/airports/LOWK

Scenery links:
FS9 scenery: Download
FSX/P3D scenery: Download
XP scenery: Download
Elevation: 1472 ft.
Transition altitude: 9000 ft.
MSA: 8900 ft.
Latitude: 46.642778
Longitude: 14.337222
LOWK Charts
LOWK Notams
LOWK Online stations

Runways

Number Course Length Elevation Lat Lon ILS ILS freq ILS FAC GP
10L 103° 8924ft / 2720 m 1470ft 46.645439 14.323206 - - 3.0°
28R 283° 8924ft / 2720 m 1444ft 46.639083 14.354789 110.1 283° 3.0°